createdAt,value
2023-05-16T00:02:24.373Z,0.90
2023-05-16T00:04:51.816Z,1.17
2023-05-16T00:07:18.586Z,1.40
2023-05-16T00:09:45.311Z,2.47
2023-05-16T00:12:11.969Z,1.30
2023-05-16T00:14:38.631Z,0.60
2023-05-16T00:17:11.825Z,2.97
2023-05-16T00:19:39.249Z,0.60
2023-05-16T00:22:06.399Z,0.38
2023-05-16T00:24:34.285Z,0.40
2023-05-16T00:27:01.164Z,0.50
2023-05-16T00:29:27.807Z,0.68
2023-05-16T00:31:54.496Z,0.90
2023-05-16T00:34:22.762Z,1.25
2023-05-16T00:36:53.415Z,0.82
2023-05-16T00:39:20.103Z,0.73
2023-05-16T00:41:46.873Z,1.13
2023-05-16T00:44:13.654Z,0.88
2023-05-16T00:46:40.578Z,1.48
2023-05-16T00:49:09.090Z,2.00
2023-05-16T00:51:37.552Z,1.42
2023-05-16T00:54:05.801Z,0.80
2023-05-16T00:56:33.177Z,1.95
2023-05-16T00:59:00.528Z,5.55
2023-05-16T01:01:29.131Z,7.32
2023-05-16T01:03:56.966Z,3.55
2023-05-16T01:06:23.975Z,5.35
2023-05-16T01:08:50.923Z,5.15
2023-05-16T01:11:46.774Z,6.35
2023-05-16T01:14:27.725Z,6.00
2023-05-16T01:17:21.175Z,5.75
2023-05-16T01:19:53.721Z,9.70
2023-05-16T01:22:29.675Z,7.75
2023-05-16T01:25:21.745Z,7.45
2023-05-16T01:27:49.150Z,5.30
2023-05-16T01:30:18.280Z,4.72
2023-05-16T01:32:45.971Z,6.25
2023-05-16T01:35:15.798Z,7.82
2023-05-16T01:38:04.069Z,6.50
2023-05-16T01:40:45.636Z,6.10
2023-05-16T01:43:16.860Z,7.35
2023-05-16T01:45:51.021Z,7.95
2023-05-16T01:48:22.758Z,5.75
2023-05-16T01:50:56.002Z,7.53
2023-05-16T01:53:29.171Z,7.53
2023-05-16T01:55:58.257Z,8.73
2023-05-16T01:58:29.522Z,6.53
2023-05-16T02:01:03.773Z,3.85
2023-05-16T02:03:34.863Z,10.07
2023-05-16T02:06:01.787Z,5.75
2023-05-16T02:08:29.276Z,16.38
2023-05-16T02:10:55.911Z,8.35
2023-05-16T02:13:22.606Z,6.28
2023-05-16T02:15:49.276Z,5.63
2023-05-16T02:18:16.694Z,10.20
2023-05-16T02:20:43.316Z,11.77
2023-05-16T02:23:09.959Z,9.20
2023-05-16T02:25:36.657Z,12.30
2023-05-16T02:28:03.375Z,13.50
2023-05-16T02:30:30.146Z,6.60
2023-05-16T02:32:56.865Z,9.98
2023-05-16T02:35:24.498Z,6.90
2023-05-16T02:37:51.391Z,12.32
2023-05-16T02:40:18.151Z,7.85
2023-05-16T02:42:44.824Z,10.95
2023-05-16T02:45:12.144Z,9.55
2023-05-16T02:47:38.796Z,9.30
2023-05-16T02:50:06.257Z,5.28
2023-05-16T02:52:34.314Z,11.63
2023-05-16T02:55:20.204Z,11.23
2023-05-16T02:57:47.560Z,6.15
2023-05-16T03:00:16.242Z,10.05
2023-05-16T03:02:45.367Z,6.63
2023-05-16T03:05:12.305Z,9.73
2023-05-16T03:07:40.084Z,8.07
2023-05-16T03:10:07.542Z,9.80
2023-05-16T03:12:34.299Z,9.02
2023-05-16T03:15:01.777Z,11.10
2023-05-16T03:17:29.392Z,8.88
2023-05-16T03:19:57.227Z,6.57
2023-05-16T03:22:23.908Z,5.28
2023-05-16T03:24:50.609Z,8.65
2023-05-16T03:27:17.270Z,6.63
2023-05-16T03:29:43.938Z,9.13
2023-05-16T03:32:12.021Z,15.43
2023-05-16T03:34:38.744Z,5.03
2023-05-16T03:37:05.815Z,8.68
2023-05-16T03:39:32.519Z,10.73
2023-05-16T03:41:59.188Z,8.93
2023-05-16T03:44:25.836Z,11.02
2023-05-16T03:46:54.094Z,11.25
2023-05-16T03:49:23.689Z,10.98
2023-05-16T03:51:50.359Z,9.05
2023-05-16T03:54:17.269Z,8.05
2023-05-16T03:56:44.138Z,9.15
2023-05-16T03:59:10.751Z,6.93
2023-05-16T04:01:37.493Z,5.88
2023-05-16T04:04:04.417Z,6.03
2023-05-16T04:06:31.853Z,9.23
2023-05-16T04:08:58.611Z,8.45
2023-05-16T04:11:26.505Z,16.88
2023-05-16T04:13:54.091Z,11.95
2023-05-16T04:16:21.004Z,7.93
2023-05-16T04:18:47.701Z,7.38
2023-05-16T04:21:15.333Z,13.20
2023-05-16T04:23:42.433Z,5.38
2023-05-16T04:26:09.137Z,5.50
2023-05-16T04:28:36.100Z,12.75
2023-05-16T04:31:03.148Z,11.75
2023-05-16T04:33:29.963Z,10.60
2023-05-16T04:35:58.455Z,10.77
2023-05-16T04:38:25.182Z,12.38
2023-05-16T04:40:52.027Z,13.05
2023-05-16T04:43:19.884Z,5.30
2023-05-16T04:45:47.135Z,18.13
2023-05-16T04:48:14.040Z,16.48
2023-05-16T04:50:41.091Z,7.00
2023-05-16T04:53:07.962Z,6.35
2023-05-16T04:55:34.658Z,5.30
2023-05-16T04:58:01.342Z,5.43
2023-05-16T05:00:28.721Z,10.75
2023-05-16T05:02:55.692Z,7.80
2023-05-16T05:05:22.527Z,9.57
2023-05-16T05:07:49.329Z,9.80
2023-05-16T05:10:16.036Z,10.75
2023-05-16T05:12:42.658Z,10.90
2023-05-16T05:15:09.560Z,8.65
2023-05-16T05:17:37.713Z,8.27
2023-05-16T05:20:08.538Z,6.93
2023-05-16T05:22:35.360Z,11.60
2023-05-16T05:25:02.079Z,12.48
2023-05-16T05:27:28.899Z,7.88
2023-05-16T05:29:56.065Z,7.28
2023-05-16T05:32:22.720Z,10.45
2023-05-16T05:34:49.449Z,11.88
2023-05-16T05:37:16.135Z,9.30
2023-05-16T05:39:42.788Z,6.93
2023-05-16T05:42:09.602Z,10.93
2023-05-16T05:44:37.624Z,9.30
2023-05-16T05:47:06.149Z,10.57
2023-05-16T05:49:33.543Z,7.97
2023-05-16T05:52:00.240Z,6.25
2023-05-16T05:54:27.118Z,7.88
2023-05-16T05:56:53.774Z,6.55
2023-05-16T05:59:20.443Z,9.63
2023-05-16T06:01:47.173Z,12.00
2023-05-16T06:04:13.893Z,5.13
2023-05-16T06:06:40.603Z,10.20
2023-05-16T06:09:07.341Z,10.18
2023-05-16T06:11:34.062Z,6.30
2023-05-16T06:14:00.839Z,4.03
2023-05-16T06:16:27.546Z,14.40
2023-05-16T06:18:54.284Z,9.43
2023-05-16T06:21:20.958Z,6.47
2023-05-16T06:23:47.807Z,7.95
2023-05-16T06:26:14.556Z,6.30
2023-05-16T06:28:41.200Z,4.22
2023-05-16T06:31:08.048Z,9.88
2023-05-16T06:33:34.935Z,9.50
2023-05-16T06:36:01.724Z,7.22
2023-05-16T06:38:28.367Z,10.02
2023-05-16T06:40:55.082Z,4.70
2023-05-16T06:43:21.816Z,6.60
2023-05-16T06:45:48.537Z,6.90
2023-05-16T06:48:15.839Z,5.88
2023-05-16T06:50:42.638Z,7.47
2023-05-16T06:53:09.473Z,7.63
2023-05-16T06:55:36.152Z,6.95
2023-05-16T06:58:03.071Z,4.75
2023-05-16T07:00:30.919Z,4.70
2023-05-16T07:02:57.835Z,8.60
2023-05-16T07:05:24.656Z,8.90
2023-05-16T07:07:51.404Z,6.00
2023-05-16T07:10:18.220Z,5.18
2023-05-16T07:12:44.919Z,7.45
2023-05-16T07:15:11.907Z,11.05
2023-05-16T07:17:38.760Z,5.10
2023-05-16T07:20:06.855Z,8.32
2023-05-16T07:22:33.729Z,10.30
2023-05-16T07:25:01.322Z,5.10
2023-05-16T07:27:28.420Z,6.30
2023-05-16T07:29:55.270Z,5.28
2023-05-16T07:32:22.202Z,5.38
2023-05-16T07:34:49.007Z,7.97
2023-05-16T07:37:16.307Z,8.00
2023-05-16T07:39:43.143Z,3.55
2023-05-16T07:42:10.143Z,7.60
2023-05-16T07:44:36.892Z,7.50
2023-05-16T07:47:03.648Z,5.97
2023-05-16T07:49:30.399Z,7.30
2023-05-16T07:51:57.115Z,6.38
2023-05-16T07:54:23.875Z,7.32
2023-05-16T07:56:50.863Z,3.83
2023-05-16T07:59:17.659Z,3.08
2023-05-16T08:01:44.486Z,3.13
2023-05-16T08:04:11.547Z,3.60
2023-05-16T08:06:38.335Z,5.20
2023-05-16T08:09:05.012Z,3.47
2023-05-16T08:11:31.671Z,3.95
2023-05-16T08:13:58.409Z,2.67
2023-05-16T08:16:25.155Z,4.78
2023-05-16T08:18:52.064Z,2.65
2023-05-16T08:21:18.821Z,3.58
2023-05-16T08:23:45.521Z,4.93
2023-05-16T08:26:12.710Z,4.65
2023-05-16T08:28:39.499Z,3.15
2023-05-16T08:31:08.349Z,4.82
2023-05-16T08:33:35.654Z,6.05
2023-05-16T08:36:02.510Z,7.18
2023-05-16T08:38:29.394Z,4.80
2023-05-16T08:40:56.223Z,4.30
2023-05-16T08:43:23.480Z,4.18
2023-05-16T08:45:50.450Z,3.53
2023-05-16T08:48:18.837Z,3.38
2023-05-16T08:50:46.260Z,4.43
2023-05-16T08:53:17.468Z,4.25
2023-05-16T08:55:45.656Z,4.18
2023-05-16T08:58:14.596Z,2.33
2023-05-16T09:00:42.042Z,5.82
2023-05-16T09:03:09.779Z,5.03
2023-05-16T09:05:37.046Z,2.25
2023-05-16T09:08:03.805Z,1.27
2023-05-16T09:10:30.678Z,3.17
2023-05-16T09:12:57.448Z,2.00
2023-05-16T09:15:31.220Z,4.88
2023-05-16T09:18:01.309Z,5.40
2023-05-16T09:20:28.253Z,2.50
2023-05-16T09:22:59.866Z,2.72
2023-05-16T09:25:30.900Z,5.20
2023-05-16T09:28:01.430Z,3.08
2023-05-16T09:30:31.663Z,3.00
2023-05-16T09:32:59.111Z,6.82
2023-05-16T09:35:42.958Z,3.10
2023-05-16T09:38:17.418Z,3.80
2023-05-16T09:40:45.625Z,6.30
2023-05-16T09:43:16.837Z,4.35
2023-05-16T09:45:49.005Z,4.50
2023-05-16T09:48:17.002Z,5.38
2023-05-16T09:50:51.032Z,3.67
2023-05-16T09:53:18.427Z,1.75
2023-05-16T09:55:45.112Z,1.92
2023-05-16T09:58:11.845Z,5.32
2023-05-16T10:00:41.028Z,3.42
2023-05-16T10:03:08.645Z,3.00
2023-05-16T10:05:36.793Z,6.07
2023-05-16T10:08:04.461Z,4.22
2023-05-16T10:10:34.937Z,1.98
2023-05-16T10:13:04.908Z,3.92
2023-05-16T10:15:32.199Z,3.67
2023-05-16T10:18:00.659Z,2.47
2023-05-16T10:20:27.644Z,3.20
2023-05-16T10:22:56.639Z,4.78
2023-05-16T10:25:32.398Z,2.42
2023-05-16T10:28:00.057Z,2.97
2023-05-16T10:30:27.168Z,2.35
2023-05-16T10:32:54.749Z,3.67
2023-05-16T10:35:22.009Z,2.28
2023-05-16T10:37:50.988Z,2.53
2023-05-16T10:40:18.448Z,1.58
2023-05-16T10:42:58.193Z,5.45
2023-05-16T10:45:25.389Z,3.75
2023-05-16T10:47:56.956Z,2.53
2023-05-16T10:50:37.282Z,1.15
2023-05-16T10:53:13.152Z,1.27
2023-05-16T10:55:40.508Z,2.58
2023-05-16T10:58:08.149Z,1.25
2023-05-16T11:00:34.856Z,2.97
2023-05-16T11:03:06.182Z,3.05
2023-05-16T11:05:33.894Z,1.83
2023-05-16T11:08:06.320Z,3.03
2023-05-16T11:10:33.317Z,3.55
2023-05-16T11:13:08.919Z,2.60
2023-05-16T11:15:35.918Z,4.13
2023-05-16T11:18:10.500Z,3.08
2023-05-16T11:20:38.997Z,2.45
2023-05-16T11:23:22.593Z,4.35
2023-05-16T11:25:53.936Z,0.88
2023-05-16T11:28:21.417Z,1.05
2023-05-16T11:30:51.213Z,3.08
2023-05-16T11:33:18.743Z,1.38
2023-05-16T11:36:15.303Z,4.05
2023-05-16T11:38:43.792Z,7.40
2023-05-16T11:41:11.386Z,5.55
2023-05-16T11:43:43.867Z,3.65
2023-05-16T11:46:14.830Z,2.30
2023-05-16T11:48:41.965Z,1.15
2023-05-16T11:51:12.135Z,3.03
2023-05-16T11:53:39.583Z,1.30
2023-05-16T11:56:08.646Z,2.25
2023-05-16T11:58:36.638Z,1.88
2023-05-16T12:01:04.817Z,3.80
2023-05-16T12:03:35.943Z,4.95
2023-05-16T12:06:03.042Z,2.53
2023-05-16T12:08:30.652Z,3.05
2023-05-16T12:10:57.463Z,3.20
2023-05-16T12:13:25.110Z,1.83
2023-05-16T12:15:52.778Z,1.55
2023-05-16T12:18:21.207Z,1.48
2023-05-16T12:20:48.360Z,3.80
2023-05-16T12:23:15.371Z,4.55
2023-05-16T12:25:46.838Z,4.18
2023-05-16T12:28:14.742Z,3.47
2023-05-16T12:30:44.111Z,6.47
2023-05-16T12:33:12.974Z,1.77
2023-05-16T12:35:42.139Z,2.03
2023-05-16T12:38:11.670Z,4.93
2023-05-16T12:40:40.474Z,2.17
2023-05-16T12:43:19.718Z,5.50
2023-05-16T12:45:53.111Z,5.07
2023-05-16T12:48:20.185Z,5.55
2023-05-16T12:50:47.124Z,5.40
2023-05-16T12:53:15.428Z,3.75
2023-05-16T12:55:43.478Z,4.55
2023-05-16T12:58:11.099Z,6.07
2023-05-16T13:00:38.960Z,1.10
2023-05-16T13:03:07.368Z,1.90
2023-05-16T13:05:35.873Z,2.45
2023-05-16T13:08:02.724Z,3.20
2023-05-16T13:10:29.934Z,1.85
2023-05-16T13:12:58.547Z,1.05
2023-05-16T13:15:26.043Z,3.20
2023-05-16T13:17:52.922Z,2.25
2023-05-16T13:20:20.081Z,2.55
2023-05-16T13:22:46.759Z,1.08
2023-05-16T13:25:13.558Z,2.30
2023-05-16T13:27:40.491Z,2.50
2023-05-16T13:30:07.670Z,5.22
2023-05-16T13:32:34.415Z,5.18
2023-05-16T13:35:01.136Z,3.70
2023-05-16T13:37:27.879Z,3.75
2023-05-16T13:39:54.821Z,2.80
2023-05-16T13:42:22.385Z,2.92
2023-05-16T13:44:49.850Z,8.55
2023-05-16T13:47:16.832Z,2.90
2023-05-16T13:49:43.643Z,6.18
2023-05-16T13:52:10.588Z,4.38
2023-05-16T13:54:37.389Z,2.25
2023-05-16T13:57:04.670Z,3.58
2023-05-16T14:00:03.524Z,2.47
2023-05-16T14:02:18.129Z,3.15
2023-05-16T14:04:44.861Z,3.20
2023-05-16T14:07:11.615Z,3.47
2023-05-16T14:09:41.031Z,3.33
2023-05-16T14:12:08.441Z,2.65
2023-05-16T14:14:35.646Z,2.45
2023-05-16T14:17:03.981Z,5.00
2023-05-16T14:19:31.241Z,2.88
2023-05-16T14:21:58.254Z,3.22
2023-05-16T14:24:24.967Z,3.15
2023-05-16T14:26:58.120Z,3.05
2023-05-16T14:29:25.463Z,3.50
2023-05-16T14:31:52.933Z,4.30
2023-05-16T14:34:20.199Z,4.78
2023-05-16T14:36:46.863Z,2.08
2023-05-16T14:39:14.216Z,3.92
2023-05-16T14:41:41.050Z,1.98
2023-05-16T14:44:07.901Z,3.30
2023-05-16T14:46:34.707Z,1.42
2023-05-16T14:49:01.554Z,4.15
2023-05-16T14:51:28.240Z,1.98
2023-05-16T14:53:54.995Z,1.10
2023-05-16T14:56:22.691Z,3.40
2023-05-16T14:58:49.720Z,1.73
2023-05-16T15:01:16.681Z,2.22
2023-05-16T15:03:54.647Z,1.80
2023-05-16T15:06:23.558Z,5.40
2023-05-16T15:08:50.701Z,4.18
2023-05-16T15:11:17.431Z,4.65
2023-05-16T15:13:44.127Z,4.75
2023-05-16T15:16:12.112Z,4.68
2023-05-16T15:18:39.018Z,3.45
2023-05-16T15:21:06.231Z,4.30
2023-05-16T15:23:33.248Z,2.10
2023-05-16T15:25:59.965Z,7.35
2023-05-16T15:28:26.675Z,1.77
2023-05-16T15:30:53.391Z,2.42
2023-05-16T15:33:20.314Z,5.18
2023-05-16T15:35:48.453Z,7.85
2023-05-16T15:38:15.263Z,4.32
2023-05-16T15:40:42.008Z,1.40
2023-05-16T15:43:08.699Z,2.83
2023-05-16T15:45:38.537Z,2.55
2023-05-16T15:48:06.927Z,2.58
2023-05-16T15:50:33.890Z,3.80
2023-05-16T15:53:00.979Z,3.55
2023-05-16T15:55:27.982Z,1.92
2023-05-16T15:57:57.241Z,4.07
2023-05-16T16:00:24.839Z,3.42
2023-05-16T16:02:51.853Z,2.53
2023-05-16T16:05:18.742Z,2.30
2023-05-16T16:07:45.547Z,2.78
2023-05-16T16:10:12.477Z,2.88
2023-05-16T16:12:39.991Z,5.35
2023-05-16T16:15:08.490Z,3.75
2023-05-16T16:17:35.326Z,7.65
2023-05-16T16:20:02.154Z,2.45
2023-05-16T16:22:28.878Z,2.30
2023-05-16T16:24:56.240Z,3.92
2023-05-16T16:27:23.442Z,4.38
2023-05-16T16:29:50.269Z,3.72
2023-05-16T16:32:16.945Z,2.53
2023-05-16T16:34:43.652Z,4.38
2023-05-16T16:37:11.513Z,4.22
2023-05-16T16:39:38.668Z,3.38
2023-05-16T16:42:06.097Z,4.13
2023-05-16T16:44:32.920Z,4.93
2023-05-16T16:46:59.629Z,2.53
2023-05-16T16:49:26.721Z,3.83
2023-05-16T16:51:53.491Z,7.28
2023-05-16T16:54:22.276Z,2.78
2023-05-16T16:56:49.568Z,3.42
2023-05-16T16:59:16.704Z,7.30
2023-05-16T17:01:43.796Z,5.20
2023-05-16T17:04:11.337Z,3.33
2023-05-16T17:06:38.201Z,6.50
2023-05-16T17:09:06.721Z,3.75
2023-05-16T17:11:36.222Z,8.30
2023-05-16T17:14:05.652Z,4.15
2023-05-16T17:16:32.881Z,5.47
2023-05-16T17:18:59.713Z,6.40
2023-05-16T17:21:28.029Z,5.50
2023-05-16T17:23:55.130Z,2.08
2023-05-16T17:26:22.056Z,3.00
2023-05-16T17:28:49.594Z,2.53
2023-05-16T17:31:16.620Z,3.60
2023-05-16T17:33:43.421Z,4.10
2023-05-16T17:36:10.769Z,3.67
2023-05-16T17:38:37.667Z,4.68
2023-05-16T17:41:04.491Z,3.47
2023-05-16T17:43:31.280Z,4.55
2023-05-16T17:45:58.033Z,4.97
2023-05-16T17:48:24.851Z,8.20
2023-05-16T17:50:51.644Z,7.60
2023-05-16T17:53:18.505Z,7.30
2023-05-16T17:55:45.267Z,8.07
2023-05-16T17:58:12.786Z,7.53
2023-05-16T18:00:39.613Z,9.27
2023-05-16T18:03:06.895Z,5.72
2023-05-16T18:05:33.863Z,6.75
2023-05-16T18:08:00.953Z,5.68
2023-05-16T18:10:31.525Z,3.63
2023-05-16T18:13:03.595Z,6.75
2023-05-16T18:15:30.331Z,4.35
2023-05-16T18:17:57.108Z,4.85
2023-05-16T18:20:23.942Z,9.27
2023-05-16T18:22:51.944Z,5.35
2023-05-16T18:25:21.894Z,3.72
2023-05-16T18:27:50.751Z,4.95
2023-05-16T18:30:17.644Z,3.90
2023-05-16T18:32:44.483Z,4.22
2023-05-16T18:35:11.261Z,4.47
2023-05-16T18:37:38.154Z,8.88
2023-05-16T18:40:05.656Z,5.72
2023-05-16T18:42:32.455Z,3.10
2023-05-16T18:44:59.163Z,3.75
2023-05-16T18:47:26.165Z,4.55
2023-05-16T18:49:53.030Z,5.72
2023-05-16T18:52:20.415Z,3.70
2023-05-16T18:54:47.195Z,4.10
2023-05-16T18:57:14.016Z,6.45
2023-05-16T18:59:40.824Z,7.90
2023-05-16T19:02:07.788Z,6.95
2023-05-16T19:04:34.706Z,7.18
2023-05-16T19:07:03.924Z,4.22
2023-05-16T19:09:32.468Z,7.20
2023-05-16T19:11:59.203Z,5.30
2023-05-16T19:14:27.208Z,5.18
2023-05-16T19:16:53.951Z,6.57
2023-05-16T19:19:21.019Z,3.72
2023-05-16T19:21:48.001Z,5.93
2023-05-16T19:24:15.024Z,3.67
2023-05-16T19:26:41.747Z,6.18
2023-05-16T19:29:10.005Z,8.35
2023-05-16T19:31:36.841Z,3.92
2023-05-16T19:34:03.614Z,5.07
2023-05-16T19:36:30.858Z,4.55
2023-05-16T19:38:58.779Z,5.97
2023-05-16T19:41:26.246Z,7.22
2023-05-16T19:43:53.236Z,6.45
2023-05-16T19:46:19.997Z,7.65
2023-05-16T19:48:46.742Z,5.28
2023-05-16T19:51:13.599Z,3.95
2023-05-16T19:53:40.866Z,4.18
2023-05-16T19:56:09.545Z,5.22
2023-05-16T19:58:36.252Z,3.58
2023-05-16T20:01:02.944Z,4.40
2023-05-16T20:03:29.803Z,7.47
2023-05-16T20:05:56.659Z,4.53
2023-05-16T20:08:23.375Z,5.80
2023-05-16T20:10:50.247Z,4.18
2023-05-16T20:13:20.262Z,4.25
2023-05-16T20:15:47.747Z,3.88
2023-05-16T20:18:14.982Z,5.95
2023-05-16T20:20:41.800Z,5.18
2023-05-16T20:23:08.463Z,4.22
2023-05-16T20:25:35.396Z,6.53
2023-05-16T20:28:02.288Z,3.55
2023-05-16T20:30:30.083Z,6.13
2023-05-16T20:32:57.522Z,7.10
2023-05-16T20:35:24.497Z,4.35
2023-05-16T20:37:51.246Z,4.88
2023-05-16T20:40:18.013Z,5.90
2023-05-16T20:42:44.863Z,7.22
2023-05-16T20:45:11.598Z,7.95
2023-05-16T20:47:38.522Z,4.55
2023-05-16T20:50:05.964Z,4.38
2023-05-16T20:52:32.762Z,4.57
2023-05-16T20:55:01.132Z,5.47
2023-05-16T20:57:28.041Z,6.93
2023-05-16T20:59:54.894Z,4.13
2023-05-16T21:02:21.540Z,7.07
2023-05-16T21:04:48.249Z,6.10
2023-05-16T21:07:14.942Z,5.18
2023-05-16T21:09:41.634Z,3.88
2023-05-16T21:12:08.471Z,3.75
2023-05-16T21:14:35.207Z,6.07
2023-05-16T21:17:01.970Z,7.65
2023-05-16T21:19:33.861Z,4.15
2023-05-16T21:22:03.192Z,5.82
2023-05-16T21:24:30.146Z,4.50
2023-05-16T21:26:56.873Z,6.53
2023-05-16T21:29:23.588Z,3.58
2023-05-16T21:31:50.330Z,4.55
2023-05-16T21:34:17.066Z,3.83
2023-05-16T21:36:43.759Z,6.43
2023-05-16T21:39:10.710Z,9.27
2023-05-16T21:41:37.466Z,4.55
2023-05-16T21:44:04.353Z,7.00
2023-05-16T21:46:31.055Z,8.50
2023-05-16T21:48:57.937Z,3.78
2023-05-16T21:51:24.920Z,5.18
2023-05-16T21:53:51.620Z,6.82
2023-05-16T21:56:18.687Z,3.75
2023-05-16T21:58:45.437Z,6.78
2023-05-16T22:01:12.844Z,6.18
2023-05-16T22:03:39.668Z,7.13
2023-05-16T22:06:06.450Z,5.05
2023-05-16T22:08:33.114Z,3.60
2023-05-16T22:10:59.838Z,4.88
2023-05-16T22:13:26.650Z,2.78
2023-05-16T22:16:03.950Z,4.72
2023-05-16T22:18:32.878Z,5.40
2023-05-16T22:21:00.056Z,4.30
2023-05-16T22:23:27.599Z,3.38
2023-05-16T22:25:54.316Z,3.88
2023-05-16T22:28:21.074Z,4.75
2023-05-16T22:30:47.786Z,3.72
2023-05-16T22:33:14.587Z,2.75
2023-05-16T22:35:41.327Z,6.18
2023-05-16T22:38:08.020Z,4.32
2023-05-16T22:40:34.711Z,4.78
2023-05-16T22:43:01.366Z,5.00
2023-05-16T22:45:28.210Z,3.95
2023-05-16T22:47:55.107Z,2.72
2023-05-16T22:50:21.857Z,4.57
2023-05-16T22:52:48.589Z,4.88
2023-05-16T22:55:15.486Z,4.30
2023-05-16T22:57:42.843Z,4.72
2023-05-16T23:00:10.020Z,3.30
2023-05-16T23:02:36.767Z,3.58
2023-05-16T23:05:04.106Z,2.88
2023-05-16T23:07:31.090Z,4.60
2023-05-16T23:09:57.846Z,4.57
2023-05-16T23:12:25.200Z,7.43
2023-05-16T23:14:52.036Z,2.53
2023-05-16T23:17:18.723Z,4.32
2023-05-16T23:19:45.673Z,3.25
2023-05-16T23:22:12.400Z,8.20
2023-05-16T23:24:39.280Z,4.97
2023-05-16T23:27:06.199Z,5.78
2023-05-16T23:29:32.928Z,4.13
2023-05-16T23:31:59.829Z,7.55
2023-05-16T23:34:26.603Z,4.35
2023-05-16T23:36:53.305Z,3.88
2023-05-16T23:39:21.323Z,6.75
2023-05-16T23:41:48.023Z,8.63
2023-05-16T23:44:14.725Z,6.05
2023-05-16T23:46:41.422Z,6.35
2023-05-16T23:49:08.181Z,5.72
2023-05-16T23:51:52.246Z,6.15
2023-05-16T23:54:21.731Z,6.15
2023-05-16T23:56:48.552Z,7.07
2023-05-16T23:59:16.285Z,7.05
